Time;durP1;ratioP1;P1;durP2;ratioP2;P2;SDS_P1;SDS_P2;PMS_P1;PMS_P2;Temp;Humidity;BMP_temperature;BMP_pressure;BME280_temperature;BME280_humidity;BME280_pressure;Samples;Min_cycle;Max_cycle;Signal;HPM_P1;HPM_P2
2022/05/11 00:01:26;;;;;;;1.90;1.45;;;20.30;74.30;;;;;;5105126;27;45242;-83
2022/05/11 00:03:54;;;;;;;2.35;1.23;;;20.30;74.20;;;;;;5109782;27;45361;-86
2022/05/11 00:06:21;;;;;;;1.75;1.17;;;20.30;74.20;;;;;;5121433;27;45689;-85
2022/05/11 00:08:47;;;;;;;3.38;1.35;;;20.30;74.40;;;;;;5106001;27;46826;-85
2022/05/11 00:11:15;;;;;;;1.10;0.90;;;20.30;74.40;;;;;;5105872;27;45123;-85
2022/05/11 00:13:44;;;;;;;1.20;1.00;;;20.30;74.50;;;;;;5104439;27;45395;-85
2022/05/11 00:16:11;;;;;;;1.27;1.17;;;20.30;74.60;;;;;;5105993;27;45343;-85
2022/05/11 00:18:38;;;;;;;3.13;1.25;;;20.30;74.60;;;;;;5106608;27;45454;-85
2022/05/11 00:21:05;;;;;;;1.48;1.17;;;20.30;74.70;;;;;;5105485;27;45258;-85
2022/05/11 00:23:32;;;;;;;1.58;1.13;;;20.30;74.70;;;;;;5103200;27;45246;-85
2022/05/11 00:25:58;;;;;;;1.40;1.13;;;20.30;74.90;;;;;;5107144;27;45292;-85
2022/05/11 00:28:25;;;;;;;1.48;1.00;;;20.30;74.80;;;;;;5102264;27;46306;-84
2022/05/11 00:30:54;;;;;;;1.42;1.20;;;20.30;74.90;;;;;;5103394;27;45095;-85
2022/05/11 00:33:21;;;;;;;2.00;1.52;;;20.30;74.90;;;;;;5106851;27;45231;-85
2022/05/11 00:35:50;;;;;;;3.58;1.30;;;20.30;74.80;;;;;;5104272;27;45688;-85
2022/05/11 00:38:19;;;;;;;1.08;0.98;;;20.30;74.80;;;;;;5104483;27;47747;-85
2022/05/11 00:40:51;;;;;;;1.23;1.00;;;20.30;74.80;;;;;;5106666;27;45326;-85
2022/05/11 00:43:28;;;;;;;1.30;1.20;;;20.20;74.60;;;;;;5105926;27;45214;-85
2022/05/11 00:46:06;;;;;;;1.27;1.17;;;20.20;74.60;;;;;;5106065;27;45419;-86
2022/05/11 00:51:18;;;;;;;1.80;1.15;;;20.30;74.50;;;;;;5106064;27;45164;-85
2022/05/11 00:53:49;;;;;;;1.10;1.00;;;20.30;74.60;;;;;;5103819;27;45416;-84
2022/05/11 00:56:16;;;;;;;1.20;1.00;;;20.30;74.50;;;;;;5102134;27;45282;-85
2022/05/11 00:58:51;;;;;;;1.10;1.00;;;20.30;74.60;;;;;;5106055;27;47434;-84
2022/05/11 01:01:19;;;;;;;1.63;1.17;;;20.30;74.60;;;;;;5104946;27;45291;-84
2022/05/11 01:03:50;;;;;;;1.35;1.15;;;20.30;74.70;;;;;;5103891;27;45478;-85
2022/05/11 01:06:19;;;;;;;1.17;1.08;;;20.30;74.70;;;;;;5109707;27;45288;-84
2022/05/11 01:08:46;;;;;;;1.83;1.00;;;20.30;74.70;;;;;;5104198;27;46587;-84
2022/05/11 01:11:13;;;;;;;1.30;1.20;;;20.30;74.60;;;;;;5107638;27;45163;-85
2022/05/11 01:13:42;;;;;;;1.50;1.20;;;20.30;74.70;;;;;;5103919;27;45480;-85
2022/05/11 01:16:09;;;;;;;1.75;1.27;;;20.30;74.70;;;;;;5106722;27;45207;-85
2022/05/11 01:18:39;;;;;;;1.52;1.27;;;20.30;74.70;;;;;;5105011;27;47506;-85
2022/05/11 01:21:08;;;;;;;1.40;0.98;;;20.30;74.70;;;;;;5103995;27;45746;-84
2022/05/11 01:23:43;;;;;;;2.05;1.10;;;20.20;74.50;;;;;;5105458;27;45200;-85
2022/05/11 01:26:15;;;;;;;1.30;1.17;;;20.20;74.50;;;;;;5108011;27;45441;-85
2022/05/11 01:28:43;;;;;;;1.45;1.20;;;20.20;74.50;;;;;;5109962;27;46713;-85
2022/05/11 01:31:12;;;;;;;1.58;1.15;;;20.20;74.40;;;;;;5109481;27;45306;-84
2022/05/11 01:33:43;;;;;;;1.67;1.13;;;20.20;74.30;;;;;;5107414;27;45296;-85
2022/05/11 01:36:16;;;;;;;1.25;1.10;;;20.20;74.30;;;;;;5109405;27;45306;-85
2022/05/11 01:38:47;;;;;;;1.50;1.13;;;20.20;74.30;;;;;;5109385;27;45351;-85
2022/05/11 01:41:20;;;;;;;1.20;1.00;;;20.20;74.30;;;;;;5106684;27;45235;-86
2022/05/11 01:43:47;;;;;;;1.20;1.10;;;20.20;74.30;;;;;;5109317;27;45321;-85
2022/05/11 01:46:16;;;;;;;1.42;1.20;;;20.20;74.20;;;;;;5109715;27;45143;-85
2022/05/11 01:48:43;;;;;;;1.48;1.30;;;20.20;74.20;;;;;;5108432;27;47999;-85
2022/05/11 01:51:11;;;;;;;1.83;1.17;;;20.20;74.10;;;;;;5106577;27;45168;-85
2022/05/11 01:53:37;;;;;;;1.10;1.00;;;20.20;74.10;;;;;;5107840;27;45216;-85
2022/05/11 01:56:05;;;;;;;1.08;0.80;;;20.20;74.10;;;;;;5109721;27;45191;-84
2022/05/11 01:58:34;;;;;;;1.40;1.10;;;20.20;74.00;;;;;;5108777;27;48062;-84
2022/05/11 02:01:01;;;;;;;1.48;1.25;;;20.20;73.90;;;;;;5106947;27;45348;-84
2022/05/11 02:03:28;;;;;;;1.17;0.90;;;20.20;73.90;;;;;;5109522;27;46340;-84
2022/05/11 02:08:43;;;;;;;1.30;1.20;;;20.20;74.90;;;;;;5102518;27;45675;-86
2022/05/11 02:11:10;;;;;;;2.28;1.15;;;20.20;73.80;;;;;;5108140;27;45710;-85
2022/05/11 02:13:39;;;;;;;1.25;1.08;;;20.20;73.80;;;;;;5107058;27;45529;-85
2022/05/11 02:16:06;;;;;;;0.88;0.82;;;20.20;73.70;;;;;;5108734;27;46646;-85
2022/05/11 02:18:34;;;;;;;1.65;1.30;;;20.20;73.60;;;;;;5106409;27;47056;-85
2022/05/11 02:21:00;;;;;;;1.70;1.30;;;20.20;73.50;;;;;;5107203;27;45578;-85
2022/05/11 02:23:27;;;;;;;1.08;0.98;;;20.20;73.50;;;;;;5108740;27;45121;-85
2022/05/11 02:25:54;;;;;;;2.65;1.00;;;20.10;73.50;;;;;;5108752;27;45130;-85
2022/05/11 02:28:22;;;;;;;1.17;1.00;;;20.10;73.40;;;;;;5103798;27;46795;-84
2022/05/11 02:30:52;;;;;;;1.88;1.38;;;20.20;73.50;;;;;;5101774;27;45995;-85
2022/05/11 02:33:19;;;;;;;1.95;1.30;;;20.20;73.30;;;;;;5109991;27;45202;-85
2022/05/11 02:35:47;;;;;;;1.65;1.08;;;20.20;73.20;;;;;;5115440;27;45605;-85
2022/05/11 02:38:17;;;;;;;1.30;1.13;;;20.20;73.20;;;;;;5107669;27;47170;-86
2022/05/11 02:40:46;;;;;;;1.70;1.00;;;20.20;73.00;;;;;;5109007;27;45190;-86
2022/05/11 02:43:13;;;;;;;0.70;0.70;;;20.20;73.00;;;;;;5107573;27;45294;-85
2022/05/11 02:45:41;;;;;;;1.55;1.20;;;20.20;73.00;;;;;;5108465;27;45451;-86
2022/05/11 02:48:11;;;;;;;1.10;1.00;;;20.20;72.90;;;;;;5105690;27;45271;-85
2022/05/11 02:50:41;;;;;;;1.35;1.08;;;20.20;72.90;;;;;;5106450;27;45241;-86
2022/05/11 02:53:09;;;;;;;1.05;0.90;;;20.20;72.90;;;;;;5108427;27;45161;-86
2022/05/11 02:55:37;;;;;;;1.17;0.95;;;20.20;72.80;;;;;;5109078;27;45439;-86
2022/05/11 02:58:04;;;;;;;1.00;0.90;;;20.20;72.90;;;;;;5106966;27;46287;-86
2022/05/11 03:00:31;;;;;;;1.38;1.10;;;20.20;72.90;;;;;;5107193;27;45253;-86
2022/05/11 03:02:59;;;;;;;2.00;1.20;;;20.20;72.80;;;;;;5104845;27;45220;-86
2022/05/11 03:05:27;;;;;;;1.15;1.00;;;20.20;72.80;;;;;;5106583;27;45357;-85
2022/05/11 03:07:54;;;;;;;1.00;0.93;;;20.20;72.90;;;;;;5094659;27;47412;-86
2022/05/11 03:10:21;;;;;;;1.50;1.00;;;20.10;72.80;;;;;;5100476;27;45574;-85
2022/05/11 03:12:48;;;;;;;1.30;1.00;;;20.20;72.80;;;;;;5106495;27;45342;-86
2022/05/11 03:15:16;;;;;;;1.33;1.10;;;20.10;72.80;;;;;;5103668;27;45163;-86
2022/05/11 03:17:43;;;;;;;0.80;0.80;;;20.10;72.70;;;;;;5103630;27;45275;-85
2022/05/11 03:20:11;;;;;;;2.10;1.20;;;20.10;72.80;;;;;;5107552;27;45218;-85
2022/05/11 03:22:39;;;;;;;1.95;1.15;;;20.10;72.80;;;;;;5106003;27;45557;-85
2022/05/11 03:25:08;;;;;;;1.70;1.30;;;20.10;72.70;;;;;;5109304;27;45377;-86
2022/05/11 03:27:35;;;;;;;1.73;1.30;;;20.20;72.60;;;;;;5107770;27;45210;-86
2022/05/11 03:30:02;;;;;;;2.08;1.27;;;20.20;72.80;;;;;;5110952;27;45230;-86
2022/05/11 03:35:13;;;;;;;2.25;1.23;;;20.20;72.50;;;;;;5104720;27;45466;-85
2022/05/11 03:37:42;;;;;;;1.42;1.15;;;20.20;72.50;;;;;;5102271;27;47829;-85
2022/05/11 03:40:10;;;;;;;2.00;1.30;;;20.20;72.60;;;;;;5106658;27;45357;-86
2022/05/11 03:42:39;;;;;;;1.30;1.20;;;20.20;72.50;;;;;;5104534;27;45118;-85
2022/05/11 03:45:12;;;;;;;1.58;1.10;;;20.20;72.50;;;;;;5108626;27;45343;-86
2022/05/11 03:47:39;;;;;;;2.13;1.20;;;20.10;72.50;;;;;;5108434;27;47400;-85
2022/05/11 03:50:08;;;;;;;1.88;1.30;;;20.20;72.50;;;;;;5107474;27;45226;-85
2022/05/11 03:52:35;;;;;;;2.22;1.40;;;20.20;72.60;;;;;;5129500;27;45588;-85
2022/05/11 03:55:06;;;;;;;1.90;1.30;;;20.10;72.50;;;;;;5122050;27;45136;-87
2022/05/11 03:57:35;;;;;;;1.83;1.40;;;20.10;72.60;;;;;;5098297;27;45501;-85
2022/05/11 04:00:02;;;;;;;1.35;1.00;;;20.10;72.60;;;;;;5128189;27;45255;-86
2022/05/11 04:02:28;;;;;;;1.50;1.13;;;20.10;72.60;;;;;;5129355;27;45166;-86
2022/05/11 04:04:55;;;;;;;2.30;1.20;;;20.10;72.60;;;;;;5111189;27;45335;-87
2022/05/11 04:07:22;;;;;;;2.25;1.20;;;20.10;72.60;;;;;;5110334;27;47376;-88
2022/05/11 04:09:49;;;;;;;4.60;1.30;;;20.10;72.70;;;;;;5106422;27;45360;-86
2022/05/11 04:12:17;;;;;;;1.83;1.30;;;20.10;72.80;;;;;;5105532;27;45438;-89
2022/05/11 04:14:47;;;;;;;1.90;1.37;;;20.10;72.80;;;;;;5100723;27;45111;-90
2022/05/11 04:17:14;;;;;;;1.45;1.15;;;20.10;72.90;;;;;;5105893;27;47031;-89
2022/05/11 04:19:41;;;;;;;2.10;1.48;;;20.20;72.80;;;;;;5107279;27;45369;-89
2022/05/11 04:22:07;;;;;;;2.10;1.52;;;20.00;72.60;;;;;;5107415;27;45183;-89
2022/05/11 04:24:34;;;;;;;2.38;1.35;;;20.20;72.60;;;;;;5112361;27;45364;-88
2022/05/11 04:27:01;;;;;;;2.73;1.70;;;20.20;72.00;;;;;;5106011;27;47901;-89
2022/05/11 04:29:30;;;;;;;2.72;1.58;;;20.20;71.40;;;;;;5104591;27;45392;-88
2022/05/11 04:31:57;;;;;;;2.60;1.50;;;20.20;71.00;;;;;;5103739;27;45321;-87
2022/05/11 04:34:24;;;;;;;2.50;1.65;;;20.20;71.00;;;;;;5105407;27;45302;-88
2022/05/11 04:36:51;;;;;;;1.52;1.30;;;20.20;70.70;;;;;;5098735;27;47897;-88
2022/05/11 04:39:18;;;;;;;2.20;1.60;;;20.20;70.80;;;;;;5105954;27;45421;-86
2022/05/11 04:41:45;;;;;;;2.58;1.88;;;20.20;71.10;;;;;;5100680;27;45547;-87
2022/05/11 04:44:12;;;;;;;2.30;1.70;;;20.20;71.50;;;;;;5098646;27;45226;-87
2022/05/11 04:46:40;;;;;;;2.30;1.92;;;20.20;71.50;;;;;;5095158;27;46216;-87
2022/05/11 04:49:20;;;;;;;2.55;1.65;;;20.20;71.40;;;;;;5102127;27;45416;-86
2022/05/11 04:51:49;;;;;;;1.98;1.52;;;20.20;71.30;;;;;;5098509;27;45290;-87
2022/05/11 04:54:17;;;;;;;1.98;1.70;;;20.20;71.30;;;;;;5104211;27;45315;-87
2022/05/11 04:56:44;;;;;;;1.98;1.40;;;20.20;71.70;;;;;;5101655;27;46157;-87
2022/05/11 04:59:13;;;;;;;2.70;1.63;;;20.20;72.10;;;;;;5105133;27;45270;-88
2022/05/11 05:01:42;;;;;;;3.92;1.88;;;20.20;72.10;;;;;;5106664;27;45294;-86
2022/05/11 05:04:09;;;;;;;3.65;1.67;;;20.20;72.30;;;;;;5106709;27;45366;-87
2022/05/11 05:06:36;;;;;;;2.05;1.40;;;20.20;72.30;;;;;;5112211;27;47518;-86
2022/05/11 05:09:04;;;;;;;3.08;1.60;;;20.20;72.40;;;;;;5106151;27;45331;-86
2022/05/11 05:11:31;;;;;;;2.38;1.70;;;20.20;72.30;;;;;;5115146;27;45248;-86
2022/05/11 05:13:58;;;;;;;2.53;1.63;;;20.20;72.40;;;;;;5109045;27;45133;-86
2022/05/11 05:16:25;;;;;;;2.72;1.63;;;20.30;72.40;;;;;;5109144;27;47650;-87
2022/05/11 05:18:54;;;;;;;2.33;1.52;;;20.30;72.50;;;;;;5107847;27;45209;-86
2022/05/11 05:21:21;;;;;;;1.55;1.27;;;20.30;72.60;;;;;;5107684;27;45364;-88
2022/05/11 05:23:47;;;;;;;3.22;1.73;;;20.30;72.60;;;;;;5108420;27;45484;-86
2022/05/11 05:26:14;;;;;;;3.50;1.63;;;20.30;72.70;;;;;;5105901;27;47482;-87
2022/05/11 05:31:28;;;;;;;1.88;1.52;;;20.30;72.90;;;;;;5104861;27;45325;-87
2022/05/11 05:33:59;;;;;;;2.92;1.75;;;20.30;73.10;;;;;;5108125;27;45316;-87
2022/05/11 05:36:27;;;;;;;3.03;1.77;;;20.30;73.10;;;;;;5107617;27;47296;-87
2022/05/11 05:38:54;;;;;;;2.88;1.50;;;20.30;73.20;;;;;;5108212;27;45777;-86
2022/05/11 05:41:21;;;;;;;2.25;1.67;;;20.30;73.40;;;;;;5109122;27;45307;-87
2022/05/11 05:43:48;;;;;;;1.98;1.50;;;20.20;73.20;;;;;;5109972;27;45206;-87
2022/05/11 05:46:16;;;;;;;3.92;1.60;;;20.30;73.60;;;;;;5107999;27;46462;-86
2022/05/11 05:48:42;;;;;;;2.10;1.80;;;20.30;73.70;;;;;;5106304;27;45555;-87
2022/05/11 05:51:13;;;;;;;3.83;1.70;;;20.20;73.60;;;;;;5108883;27;45346;-87
2022/05/11 05:53:40;;;;;;;2.85;1.67;;;20.20;73.90;;;;;;5103751;27;45386;-86
2022/05/11 05:56:07;;;;;;;13.55;2.25;;;20.20;73.80;;;;;;5101570;27;46213;-87
2022/05/11 05:58:34;;;;;;;4.03;1.98;;;20.30;74.20;;;;;;5106472;27;45480;-87
2022/05/11 06:01:01;;;;;;;5.72;2.10;;;20.20;74.00;;;;;;5108064;27;45392;-85
2022/05/11 06:03:30;;;;;;;5.15;1.90;;;20.30;75.30;;;;;;5109834;27;45336;-86
2022/05/11 06:05:57;;;;;;;3.83;1.80;;;20.30;74.00;;;;;;5117401;27;47371;-85
2022/05/11 06:08:29;;;;;;;5.50;1.90;;;20.30;74.10;;;;;;5114692;27;45216;-87
2022/05/11 06:10:57;;;;;;;3.13;1.70;;;20.30;74.20;;;;;;5108210;27;45274;-87
2022/05/11 06:13:24;;;;;;;2.42;1.60;;;20.30;74.30;;;;;;5108909;27;45131;-87
2022/05/11 06:15:52;;;;;;;2.30;1.55;;;20.30;74.20;;;;;;5110018;27;46426;-86
2022/05/11 06:18:20;;;;;;;2.33;1.42;;;20.30;74.20;;;;;;5107681;27;45259;-86
2022/05/11 06:20:51;;;;;;;4.10;1.70;;;20.30;73.90;;;;;;5107679;27;45190;-86
2022/05/11 06:23:18;;;;;;;3.08;1.50;;;20.30;73.90;;;;;;5107781;27;45264;-86
2022/05/11 06:25:49;;;;;;;3.10;1.80;;;20.30;74.00;;;;;;5110502;27;46054;-86
2022/05/11 06:28:16;;;;;;;2.70;1.45;;;20.30;74.10;;;;;;5117265;27;45278;-86
2022/05/11 06:30:43;;;;;;;2.65;1.85;;;20.30;74.20;;;;;;5109021;27;45477;-86
2022/05/11 06:33:09;;;;;;;2.80;1.60;;;20.30;74.20;;;;;;5109575;27;45200;-86
2022/05/11 06:35:36;;;;;;;3.78;1.70;;;20.30;74.20;;;;;;5108119;27;45335;-86
2022/05/11 06:38:04;;;;;;;3.10;1.80;;;20.30;74.20;;;;;;5109695;27;45165;-86
2022/05/11 06:40:31;;;;;;;1.83;1.30;;;20.20;74.20;;;;;;5107400;27;45206;-86
2022/05/11 06:43:01;;;;;;;2.13;1.60;;;20.30;74.30;;;;;;5107870;27;45766;-86
2022/05/11 06:45:28;;;;;;;2.58;1.50;;;20.30;74.30;;;;;;5109272;27;46428;-86
2022/05/11 06:47:55;;;;;;;3.15;1.77;;;20.30;74.20;;;;;;5109514;27;45143;-85
2022/05/11 06:50:24;;;;;;;2.80;1.52;;;20.30;74.30;;;;;;5107598;27;45114;-86
2022/05/11 06:52:51;;;;;;;2.58;1.42;;;20.30;74.30;;;;;;5107923;27;45198;-87
2022/05/11 07:00:49;;;;;;;4.53;1.70;;;20.30;74.30;;;;;;5119065;27;45194;-85
2022/05/11 07:03:17;;;;;;;4.10;1.60;;;20.30;74.40;;;;;;5100817;27;45345;-85
2022/05/11 07:05:45;;;;;;;3.83;1.50;;;20.30;74.50;;;;;;5107978;27;46265;-85
2022/05/11 07:08:11;;;;;;;3.38;1.13;;;20.30;74.60;;;;;;5108296;27;45286;-86
2022/05/11 07:10:42;;;;;;;2.15;1.40;;;20.30;74.40;;;;;;5105358;27;45491;-88
2022/05/11 07:13:10;;;;;;;1.83;1.30;;;20.30;74.40;;;;;;5111601;27;45398;-85
2022/05/11 07:15:37;;;;;;;2.90;1.40;;;20.30;74.20;;;;;;5108285;27;45502;-85
2022/05/11 07:18:04;;;;;;;2.22;1.20;;;20.30;73.90;;;;;;5108089;27;45178;-84
2022/05/11 07:20:36;;;;;;;3.72;1.35;;;20.40;73.80;;;;;;5102700;27;45199;-85
2022/05/11 07:23:04;;;;;;;3.72;1.60;;;20.40;73.70;;;;;;5107705;27;45235;-84
2022/05/11 07:25:32;;;;;;;1.38;1.27;;;20.40;73.40;;;;;;5109569;27;45326;-85
2022/05/11 07:28:00;;;;;;;3.50;1.40;;;20.40;73.30;;;;;;5108035;27;45461;-84
2022/05/11 07:30:32;;;;;;;3.42;1.30;;;20.40;74.40;;;;;;5103895;27;45253;-84
2022/05/11 07:32:59;;;;;;;1.40;1.00;;;20.40;73.30;;;;;;5106356;27;45481;-85
2022/05/11 07:35:26;;;;;;;2.75;1.17;;;20.40;73.20;;;;;;5108371;27;46604;-85
2022/05/11 07:37:54;;;;;;;1.92;1.45;;;20.50;73.00;;;;;;5100456;27;45386;-86
2022/05/11 07:40:23;;;;;;;1.83;1.15;;;20.50;73.00;;;;;;5107811;27;45251;-85
2022/05/11 07:42:50;;;;;;;1.17;1.05;;;20.50;72.90;;;;;;5105995;27;45238;-86
2022/05/11 07:45:18;;;;;;;1.40;1.00;;;20.50;73.00;;;;;;5107759;27;46266;-86
2022/05/11 07:47:47;;;;;;;2.53;0.98;;;20.50;72.90;;;;;;5103182;27;45305;-85
2022/05/11 07:50:15;;;;;;;2.28;1.00;;;20.50;72.70;;;;;;5104723;27;45444;-84
2022/05/11 07:52:42;;;;;;;1.55;1.00;;;20.50;72.70;;;;;;5102381;27;45517;-85
2022/05/11 07:55:09;;;;;;;3.38;1.00;;;20.50;72.80;;;;;;5107038;27;47245;-87
2022/05/11 08:00:21;;;;;;;2.33;0.98;;;20.50;72.40;;;;;;5111853;27;45266;-86
2022/05/11 08:02:50;;;;;;;3.08;1.33;;;20.50;72.40;;;;;;5103382;27;45493;-85
2022/05/11 08:05:18;;;;;;;10.80;1.40;;;20.50;72.90;;;;;;5097055;27;47710;-84
2022/05/11 08:07:50;;;;;;;1.23;0.90;;;20.50;72.60;;;;;;5109383;27;45170;-85
2022/05/11 08:10:21;;;;;;;3.42;1.10;;;20.50;72.50;;;;;;5109263;27;45425;-85
2022/05/11 08:12:49;;;;;;;1.98;1.00;;;20.50;72.30;;;;;;5104817;27;45287;-85
2022/05/11 08:15:17;;;;;;;1.95;1.10;;;20.50;72.40;;;;;;5105548;27;46460;-84
2022/05/11 08:17:46;;;;;;;2.47;1.05;;;20.50;72.50;;;;;;5106831;27;45709;-84
2022/05/11 08:20:16;;;;;;;1.70;0.93;;;20.50;72.40;;;;;;5106826;27;45138;-84
2022/05/11 08:22:44;;;;;;;2.80;1.30;;;20.50;72.50;;;;;;5105411;27;45347;-85
2022/05/11 08:25:11;;;;;;;1.63;1.17;;;20.50;72.40;;;;;;5106793;27;46274;-84
2022/05/11 08:27:39;;;;;;;1.05;0.90;;;20.50;72.10;;;;;;5106514;27;45208;-84
2022/05/11 08:35:38;;;;;;;2.60;1.15;;;20.50;72.50;;;;;;5102864;27;45738;-83
2022/05/11 08:38:05;;;;;;;1.67;1.00;;;20.50;72.20;;;;;;5107814;27;45284;-85
2022/05/11 08:40:40;;;;;;;1.98;0.95;;;20.50;72.50;;;;;;5105529;27;45385;-85
2022/05/11 08:43:11;;;;;;;1.45;1.10;;;20.40;72.70;;;;;;5109423;27;45365;-85
2022/05/11 08:45:44;;;;;;;5.50;1.30;;;20.50;72.50;;;;;;5106921;27;45348;-83
2022/05/11 08:48:29;;;;;;;17.25;2.22;;;20.50;73.30;;;;;;5108419;27;45441;-85
2022/05/11 08:50:58;;;;;;;5.38;1.67;;;20.30;72.40;;;;;;5107515;27;45324;-90
2022/05/11 08:53:37;;;;;;;12.63;1.90;;;20.60;72.50;;;;;;5109447;27;45380;-92
2022/05/11 08:56:12;;;;;;;6.30;1.42;;;21.00;72.80;;;;;;5107680;27;45474;-90
2022/05/11 08:58:45;;;;;;;11.13;1.58;;;20.60;72.10;;;;;;5100784;27;45395;-89
2022/05/11 09:01:18;;;;;;;2.00;1.08;;;20.60;72.70;;;;;;5106798;27;45368;-88
2022/05/11 09:03:53;;;;;;;18.15;2.63;;;20.50;72.50;;;;;;5105568;27;45413;-89
2022/05/11 09:06:26;;;;;;;3.97;1.48;;;20.70;75.40;;;;;;5108424;27;46481;-90
2022/05/11 09:08:54;;;;;;;3.55;1.30;;;20.60;75.40;;;;;;5110471;27;45870;-89
2022/05/11 09:11:26;;;;;;;3.13;1.30;;;21.50;75.90;;;;;;5103995;27;45384;-89
2022/05/11 09:13:53;;;;;;;1.85;1.23;;;21.00;74.00;;;;;;5110944;27;45336;-86
2022/05/11 09:16:26;;;;;;;5.88;1.23;;;21.30;74.70;;;;;;5109648;27;46894;-89
2022/05/11 09:18:53;;;;;;;3.08;1.55;;;22.80;75.10;;;;;;5108154;27;45320;-87
2022/05/11 09:21:32;;;;;;;3.45;1.38;;;22.30;75.00;;;;;;5109405;27;45469;-88
2022/05/11 09:24:30;;;;;;;4.25;1.33;;;21.80;73.80;;;;;;5106392;27;45433;-87
2022/05/11 09:27:07;;;;;;;2.92;1.30;;;22.00;73.70;;;;;;5109347;27;45323;-87
2022/05/11 09:29:37;;;;;;;2.60;1.30;;;22.30;73.90;;;;;;5094316;27;45211;-87
2022/05/11 09:32:37;;;;;;;5.40;1.77;;;22.40;74.10;;;;;;5104638;27;45306;-87
2022/05/11 09:35:34;;;;;;;1.65;1.00;;;22.60;75.20;;;;;;5066752;28;45486;-87
2022/05/11 09:38:07;;;;;;;2.15;1.13;;;22.80;75.00;;;;;;5101145;27;47283;-87
2022/05/11 09:40:55;;;;;;;4.50;1.40;;;22.90;74.50;;;;;;5102788;27;45300;-88
2022/05/11 09:43:32;;;;;;;2.53;1.10;;;23.00;75.30;;;;;;5103784;27;45279;-87
2022/05/11 09:46:00;;;;;;;1.90;1.20;;;23.00;74.10;;;;;;5104681;27;45319;-87
2022/05/11 09:48:31;;;;;;;1.83;1.10;;;23.10;75.10;;;;;;5099285;27;47832;-88
2022/05/11 09:51:19;;;;;;;4.50;1.35;;;23.10;73.80;;;;;;5106563;27;45303;-88
2022/05/11 09:53:53;;;;;;;2.35;1.35;;;23.20;74.40;;;;;;5112056;27;45299;-87
2022/05/11 09:56:25;;;;;;;2.35;1.20;;;23.20;74.20;;;;;;5099938;27;45250;-87
2022/05/11 09:58:52;;;;;;;3.08;1.27;;;23.30;75.40;;;;;;5105280;27;45710;-87
2022/05/11 10:01:26;;;;;;;2.72;1.38;;;23.30;75.60;;;;;;5109639;27;45347;-87
2022/05/11 10:03:56;;;;;;;2.58;1.42;;;23.30;74.20;;;;;;5109230;27;45215;-86
2022/05/11 10:06:25;;;;;;;3.50;1.40;;;23.40;74.60;;;;;;5110770;27;45319;-86
2022/05/11 10:08:54;;;;;;;6.93;1.67;;;23.40;75.60;;;;;;5113667;27;46115;-86
2022/05/11 10:11:25;;;;;;;3.30;1.50;;;23.30;74.90;;;;;;5109131;27;45733;-86
2022/05/11 10:14:00;;;;;;;4.13;1.40;;;23.40;74.90;;;;;;5109565;27;45255;-86
2022/05/11 10:22:23;;;;;;;3.33;1.55;;;23.40;74.20;;;;;;5101957;27;45207;-86
2022/05/11 10:25:13;;;;;;;4.82;1.55;;;23.30;73.60;;;;;;5103184;27;45291;-89
2022/05/11 10:27:45;;;;;;;3.88;1.58;;;23.10;73.40;;;;;;5119629;27;45334;-87
2022/05/11 10:30:18;;;;;;;4.57;1.38;;;22.70;73.50;;;;;;5107340;27;47858;-88
2022/05/11 10:33:11;;;;;;;3.65;1.63;;;22.40;73.80;;;;;;5108376;27;45226;-88
2022/05/11 10:35:56;;;;;;;4.65;1.75;;;22.60;74.90;;;;;;5105344;27;45289;-88
2022/05/11 10:38:41;;;;;;;3.75;1.67;;;21.90;75.40;;;;;;5097126;27;45477;-88
2022/05/11 10:41:27;;;;;;;4.22;1.67;;;21.80;75.40;;;;;;5108029;27;48132;-87
2022/05/11 10:44:02;;;;;;;4.43;1.38;;;21.70;75.60;;;;;;5098476;27;45370;-89
2022/05/11 10:46:36;;;;;;;4.63;1.50;;;21.70;76.10;;;;;;5101586;27;45330;-86
2022/05/11 10:49:20;;;;;;;16.25;2.63;;;21.60;78.30;;;;;;5100349;27;45353;-87
2022/05/11 10:52:16;;;;;;;12.27;2.40;;;21.60;80.60;;;;;;5100172;27;45693;-89
2022/05/11 10:54:51;;;;;;;17.23;2.80;;;21.70;78.00;;;;;;5091663;27;46027;-89
2022/05/11 10:57:27;;;;;;;26.10;3.10;;;21.60;77.20;;;;;;5101967;27;45490;-81
2022/05/11 11:00:08;;;;;;;9.13;2.70;;;21.60;78.90;;;;;;5100917;27;45519;-79
2022/05/11 11:03:12;;;;;;;7.25;1.73;;;21.60;77.60;;;;;;5101313;27;48190;-78
2022/05/11 11:08:58;;;;;;;12.27;2.20;;;21.50;77.20;;;;;;5104501;27;45291;-79
2022/05/11 11:11:34;;;;;;;8.32;1.95;;;21.50;77.40;;;;;;5106866;27;45352;-80
2022/05/11 11:14:04;;;;;;;11.60;1.60;;;21.40;76.70;;;;;;5095645;27;47188;-80
2022/05/11 11:16:35;;;;;;;7.40;1.90;;;21.40;77.40;;;;;;5099232;27;45247;-80
2022/05/11 11:19:04;;;;;;;4.55;1.90;;;21.40;77.40;;;;;;5100421;27;45237;-79
2022/05/11 11:21:31;;;;;;;6.45;1.60;;;21.40;77.10;;;;;;5107334;27;45157;-79
2022/05/11 11:24:14;;;;;;;3.50;1.70;;;21.30;77.00;;;;;;5106972;27;46598;-81
2022/05/11 11:26:53;;;;;;;7.43;2.00;;;21.30;76.90;;;;;;5098822;27;45201;-81
2022/05/11 11:29:25;;;;;;;8.63;1.67;;;21.30;77.10;;;;;;5107518;27;45304;-80
2022/05/11 11:32:04;;;;;;;4.85;1.77;;;21.30;77.00;;;;;;5106419;27;45238;-80
2022/05/11 11:34:32;;;;;;;8.70;1.90;;;21.30;77.50;;;;;;5106317;27;45471;-80
2022/05/11 11:37:01;;;;;;;4.35;1.63;;;21.20;77.40;;;;;;5107307;27;45177;-80
2022/05/11 11:40:15;;;;;;;4.75;1.80;;;21.20;77.50;;;;;;5106010;27;45221;-80
2022/05/11 11:42:43;;;;;;;7.53;1.70;;;21.20;77.80;;;;;;5040434;28;45476;-80
2022/05/11 11:45:50;;;;;;;4.55;1.67;;;21.20;77.80;;;;;;5051556;28;46598;-79
2022/05/11 11:48:23;;;;;;;3.00;1.60;;;21.20;78.00;;;;;;5091399;27;45490;-80
2022/05/11 11:50:53;;;;;;;7.18;1.50;;;21.10;78.40;;;;;;5105755;27;45241;-81
2022/05/11 11:53:27;;;;;;;2.88;1.60;;;21.10;78.00;;;;;;5101175;27;45544;-79
2022/05/11 11:55:54;;;;;;;4.50;1.58;;;21.10;78.20;;;;;;5101884;27;45283;-81
2022/05/11 11:58:28;;;;;;;10.60;1.30;;;21.10;78.00;;;;;;5104412;27;45566;-80
2022/05/11 12:01:09;;;;;;;3.53;1.42;;;21.10;77.90;;;;;;5094135;27;45778;-80
2022/05/11 12:03:51;;;;;;;5.15;1.45;;;21.10;78.00;;;;;;5106669;27;45475;-80
2022/05/11 12:17:32;;;;;;;2.15;1.45;;;21.00;78.80;;;;;;5104348;27;45807;-80
2022/05/11 12:20:08;;;;;;;2.72;1.20;;;21.00;79.00;;;;;;5104302;27;45642;-80
2022/05/11 12:22:43;;;;;;;3.95;1.73;;;21.00;79.10;;;;;;5104107;27;45236;-80
2022/05/11 12:25:23;;;;;;;3.08;1.40;;;21.00;79.10;;;;;;5103385;27;45295;-80
2022/05/11 12:27:51;;;;;;;4.57;1.58;;;21.00;79.20;;;;;;5099934;27;45506;-80
2022/05/11 12:30:22;;;;;;;1.75;1.25;;;21.00;79.10;;;;;;5102590;27;45149;-82
2022/05/11 12:32:53;;;;;;;3.67;1.60;;;21.00;79.10;;;;;;5105713;27;45392;-82
2022/05/11 12:35:27;;;;;;;3.88;1.95;;;21.00;79.10;;;;;;5102879;27;45245;-81
2022/05/11 12:37:56;;;;;;;2.97;1.80;;;21.00;79.10;;;;;;5107064;27;45247;-80
2022/05/11 12:40:23;;;;;;;2.50;1.40;;;21.00;79.10;;;;;;5097585;27;45765;-81
2022/05/11 12:42:52;;;;;;;3.95;1.70;;;21.00;79.10;;;;;;5100146;27;45270;-81
2022/05/11 12:45:21;;;;;;;3.42;1.60;;;21.00;79.10;;;;;;5101717;27;45324;-81
2022/05/11 12:47:52;;;;;;;2.92;1.67;;;21.00;79.60;;;;;;5104754;27;45173;-80
2022/05/11 12:50:25;;;;;;;2.70;1.35;;;20.90;80.30;;;;;;5104327;27;45174;-81
2022/05/11 12:53:07;;;;;;;3.10;1.70;;;20.90;80.30;;;;;;5104478;27;45353;-81
2022/05/11 12:55:37;;;;;;;2.92;1.40;;;20.90;80.70;;;;;;5106089;27;45198;-81
2022/05/11 12:58:05;;;;;;;3.70;1.60;;;20.90;80.70;;;;;;5104374;27;46355;-81
2022/05/11 13:00:34;;;;;;;1.80;1.27;;;20.90;80.80;;;;;;5098872;27;45652;-81
2022/05/11 13:03:17;;;;;;;2.38;1.40;;;20.90;80.60;;;;;;5105407;27;45623;-81
2022/05/11 13:05:47;;;;;;;3.63;1.30;;;20.90;80.70;;;;;;5101921;27;45577;-80
2022/05/11 13:08:14;;;;;;;3.60;1.73;;;20.90;81.20;;;;;;5104203;27;47438;-80
2022/05/11 13:10:41;;;;;;;2.15;1.70;;;20.90;81.30;;;;;;5106216;27;45210;-80
2022/05/11 13:13:16;;;;;;;4.13;1.50;;;20.90;81.30;;;;;;5101938;27;45599;-81
2022/05/11 13:15:46;;;;;;;3.87;1.73;;;20.90;81.40;;;;;;5103513;27;45398;-81
2022/05/11 13:18:23;;;;;;;4.03;1.70;;;20.90;84.30;;;;;;5105695;27;46290;-83
2022/05/11 13:20:53;;;;;;;5.50;2.10;;;20.90;87.30;;;;;;5107228;27;45345;-80
2022/05/11 13:23:27;;;;;;;4.85;1.70;;;20.90;90.70;;;;;;5109380;27;45258;-79
2022/05/11 13:25:56;;;;;;;6.80;2.08;;;20.80;91.10;;;;;;5116579;27;45579;-79
2022/05/11 13:28:26;;;;;;;2.47;1.60;;;20.80;90.50;;;;;;5104381;27;46561;-79
2022/05/11 13:30:54;;;;;;;2.15;1.42;;;20.80;90.40;;;;;;5099755;27;45279;-77
2022/05/11 13:33:44;;;;;;;2.05;1.52;;;20.70;90.70;;;;;;5094508;27;46421;-79
2022/05/11 13:36:18;;;;;;;2.35;1.50;;;20.80;91.30;;;;;;5108389;27;45128;-79
2022/05/11 13:39:01;;;;;;;3.45;1.70;;;20.70;90.80;;;;;;5097747;27;45519;-80
2022/05/11 13:41:32;;;;;;;4.05;1.70;;;20.70;90.80;;;;;;5101313;27;46770;-79
2022/05/11 13:44:03;;;;;;;3.03;1.70;;;20.70;91.00;;;;;;5104850;27;45482;-79
2022/05/11 13:49:33;;;;;;;2.72;1.70;;;20.60;91.50;;;;;;5092567;27;45375;-79
2022/05/11 13:52:05;;;;;;;1.58;1.15;;;20.60;91.10;;;;;;5103573;27;45303;-79